createdAt,value
2018-10-05T00:00:32.959Z,89.09
2018-10-05T00:01:32.960Z,89.19
2018-10-05T00:02:32.929Z,88.92
2018-10-05T00:03:32.918Z,89.19
2018-10-05T00:04:32.937Z,88.98
2018-10-05T00:05:32.889Z,88.68
2018-10-05T00:06:32.911Z,88.78
2018-10-05T00:07:32.869Z,88.78
2018-10-05T00:08:32.857Z,88.78
2018-10-05T00:09:32.852Z,89.39
2018-10-05T00:10:32.831Z,89.19
2018-10-05T00:11:32.932Z,89.29
2018-10-05T00:12:32.830Z,89.50
2018-10-05T00:13:32.805Z,89.29
2018-10-05T00:14:32.801Z,88.88
2018-10-05T00:15:32.776Z,89.29
2018-10-05T00:16:32.803Z,89.50
2018-10-05T00:17:32.756Z,89.29
2018-10-05T00:18:32.742Z,89.50
2018-10-05T00:19:32.736Z,89.19
2018-10-05T00:20:32.794Z,88.17
2018-10-05T00:21:32.733Z,88.78
2018-10-05T00:22:32.707Z,88.88
2018-10-05T00:23:32.717Z,88.53
2018-10-05T00:24:32.676Z,88.88
2018-10-05T00:25:32.668Z,88.78
2018-10-05T00:26:32.687Z,88.57
2018-10-05T00:27:32.642Z,88.33
2018-10-05T00:28:32.633Z,88.27
2018-10-05T00:29:32.638Z,87.96
2018-10-05T00:30:32.610Z,88.12
2018-10-05T00:31:32.635Z,88.23
2018-10-05T00:32:32.715Z,88.23
2018-10-05T00:33:32.578Z,87.85
2018-10-05T00:34:32.595Z,88.27
2018-10-05T00:35:32.647Z,87.76
2018-10-05T00:36:32.548Z,88.23
2018-10-05T00:37:32.534Z,87.71
2018-10-05T00:38:32.562Z,87.96
2018-10-05T00:39:32.522Z,87.76
2018-10-05T00:40:32.504Z,87.76
2018-10-05T00:41:32.483Z,87.85
2018-10-05T00:42:32.474Z,87.85
2018-10-05T00:43:32.496Z,87.96
2018-10-05T00:44:32.459Z,87.96
2018-10-05T00:45:32.446Z,87.76
2018-10-05T00:46:32.432Z,87.76
2018-10-05T00:47:32.462Z,88.06
2018-10-05T00:48:32.439Z,88.37
2018-10-05T00:49:32.396Z,88.27
2018-10-05T00:50:32.389Z,88.57
2018-10-05T00:51:32.377Z,88.47
2018-10-05T00:52:32.368Z,88.47
2018-10-05T00:53:32.503Z,88.68
2018-10-05T00:54:32.400Z,88.88
2018-10-05T00:55:32.334Z,88.47
2018-10-05T00:56:32.323Z,88.88
2018-10-05T00:57:32.345Z,88.78
2018-10-05T00:58:32.308Z,88.78
2018-10-05T00:59:32.324Z,88.98
2018-10-05T01:00:32.278Z,88.78
2018-10-05T01:01:32.294Z,88.98
2018-10-05T01:02:32.256Z,88.92
2018-10-05T01:03:32.241Z,88.78
2018-10-05T01:04:32.230Z,88.92
2018-10-05T01:05:32.248Z,89.03
2018-10-05T01:06:32.215Z,88.62
2018-10-05T01:07:32.199Z,89.03
2018-10-05T01:08:32.200Z,88.98
2018-10-05T01:09:32.205Z,88.78
2018-10-05T01:10:32.186Z,88.82
2018-10-05T01:11:32.294Z,88.78
2018-10-05T01:12:32.143Z,88.72
2018-10-05T01:13:32.134Z,88.72
2018-10-05T01:14:32.143Z,88.82
2018-10-05T01:15:32.116Z,88.72
2018-10-05T01:16:32.135Z,88.10
2018-10-05T01:17:32.094Z,88.62
2018-10-05T01:18:32.102Z,88.06
2018-10-05T01:19:32.091Z,88.06
2018-10-05T01:20:32.060Z,88.10
2018-10-05T01:21:32.092Z,88.10
2018-10-05T01:22:32.043Z,88.68
2018-10-05T01:23:32.021Z,88.82
2018-10-05T01:24:32.010Z,89.23
2018-10-05T01:25:32.032Z,88.82
2018-10-05T01:26:31.993Z,88.72
2018-10-05T01:27:31.979Z,88.72
2018-10-05T01:28:31.966Z,89.03
2018-10-05T01:29:31.958Z,88.62
2018-10-05T01:30:31.974Z,88.82
2018-10-05T01:31:32.038Z,88.82
2018-10-05T01:32:31.928Z,88.82
2018-10-05T01:33:31.912Z,88.82
2018-10-05T01:34:31.904Z,88.72
2018-10-05T01:35:31.889Z,88.72
2018-10-05T01:36:31.909Z,88.72
2018-10-05T01:37:31.866Z,88.72
2018-10-05T01:38:31.909Z,88.96
2018-10-05T01:39:31.851Z,88.66
2018-10-05T01:40:31.830Z,88.86
2018-10-05T01:41:31.823Z,88.72
2018-10-05T01:42:31.815Z,88.82
2018-10-05T01:43:31.845Z,88.96
2018-10-05T01:44:31.823Z,88.62
2018-10-05T01:45:31.779Z,88.72
2018-10-05T01:46:31.765Z,88.82
2018-10-05T01:47:31.871Z,88.66
2018-10-05T01:48:31.747Z,88.86
2018-10-05T01:49:31.743Z,88.76
2018-10-05T01:50:31.761Z,88.96
2018-10-05T01:51:31.709Z,88.76
2018-10-05T01:52:31.699Z,89.07
2018-10-05T01:53:31.697Z,88.86
2018-10-05T01:54:31.690Z,88.86
2018-10-05T01:55:31.725Z,88.76
2018-10-05T01:56:31.654Z,89.37
2018-10-05T01:57:31.645Z,88.14
2018-10-05T01:58:31.636Z,89.58
2018-10-05T01:59:31.625Z,88.56
2018-10-05T02:00:31.639Z,89.58
2018-10-05T02:01:31.601Z,89.58
2018-10-05T02:02:31.655Z,89.37
2018-10-05T02:03:31.575Z,89.11
2018-10-05T02:04:31.568Z,89.58
2018-10-05T02:05:31.612Z,89.07
2018-10-05T02:06:31.575Z,89.07
2018-10-05T02:07:31.535Z,89.01
2018-10-05T02:08:31.526Z,89.27
2018-10-05T02:09:31.507Z,89.07
2018-10-05T02:10:31.535Z,89.11
2018-10-05T02:11:31.491Z,88.86
2018-10-05T02:12:31.485Z,88.90
2018-10-05T02:13:31.469Z,88.86
2018-10-05T02:14:31.539Z,89.17
2018-10-05T02:15:31.494Z,89.17
2018-10-05T02:16:31.442Z,89.01
2018-10-05T02:17:31.466Z,89.11
2018-10-05T02:18:31.414Z,89.21
2018-10-05T02:19:31.402Z,89.01
2018-10-05T02:20:31.397Z,89.31
2018-10-05T02:21:31.376Z,89.21
2018-10-05T02:22:31.388Z,88.90
2018-10-05T02:23:31.369Z,89.31
2018-10-05T02:24:31.384Z,89.11
2018-10-05T02:25:31.331Z,89.31
2018-10-05T02:26:31.325Z,89.31
2018-10-05T02:27:31.357Z,89.31
2018-10-05T02:28:31.303Z,89.31
2018-10-05T02:29:31.317Z,89.31
2018-10-05T02:30:31.401Z,89.21
2018-10-05T02:31:31.264Z,89.72
2018-10-05T02:32:31.258Z,89.66
2018-10-05T02:33:31.249Z,89.46
2018-10-05T02:34:31.265Z,89.52
2018-10-05T02:35:31.263Z,89.36
2018-10-05T02:36:31.212Z,89.62
2018-10-05T02:37:31.226Z,89.76
2018-10-05T02:38:31.188Z,89.31
2018-10-05T02:39:31.176Z,89.56
2018-10-05T02:40:31.169Z,89.76
2018-10-05T02:41:31.197Z,89.87
2018-10-05T02:42:31.174Z,89.87
2018-10-05T02:43:31.133Z,90.69
2018-10-05T02:44:31.133Z,90.38
2018-10-05T02:45:31.137Z,90.18
2018-10-05T02:46:31.221Z,89.97
2018-10-05T02:47:31.090Z,89.76
2018-10-05T02:48:31.080Z,89.56
2018-10-05T02:49:31.068Z,89.46
2018-10-05T02:50:31.057Z,89.52
2018-10-05T02:51:31.074Z,89.46
2018-10-05T02:52:31.104Z,89.66
2018-10-05T02:53:31.051Z,89.15
2018-10-05T02:54:31.089Z,89.15
2018-10-05T02:55:31.006Z,89.46
2018-10-05T02:56:30.996Z,89.60
2018-10-05T02:57:31.050Z,89.56
2018-10-05T02:58:30.967Z,90.08
2018-10-05T02:59:30.956Z,89.97
2018-10-05T03:00:30.951Z,90.69
2018-10-05T03:01:30.936Z,90.48
2018-10-05T03:02:30.957Z,90.38
2018-10-05T03:03:30.950Z,90.32
2018-10-05T03:04:30.951Z,90.59
2018-10-05T03:05:30.896Z,90.59
2018-10-05T03:06:30.881Z,90.22
2018-10-05T03:07:30.874Z,90.18
2018-10-05T03:08:30.858Z,90.22
2018-10-05T03:09:30.894Z,90.12
2018-10-05T03:10:30.843Z,90.12
2018-10-05T03:11:30.827Z,90.22
2018-10-05T03:12:30.811Z,90.53
2018-10-05T03:13:30.840Z,90.63
2018-10-05T03:14:30.820Z,90.08
2018-10-05T03:15:30.782Z,90.32
2018-10-05T03:16:30.776Z,90.12
2018-10-05T03:17:30.769Z,90.53
2018-10-05T03:18:30.748Z,90.73
2018-10-05T03:19:30.771Z,90.22
2018-10-05T03:20:30.727Z,90.32
2018-10-05T03:21:30.718Z,91.04
2018-10-05T03:22:30.706Z,90.73
2018-10-05T03:23:30.694Z,90.83
2018-10-05T03:24:30.719Z,90.83
2018-10-05T03:25:30.680Z,90.67
2018-10-05T03:26:30.742Z,90.42
2018-10-05T03:27:30.680Z,90.47
2018-10-05T03:28:30.642Z,90.36
2018-10-05T03:29:30.702Z,90.94
2018-10-05T03:30:30.618Z,90.36
2018-10-05T03:31:30.607Z,90.53
2018-10-05T03:32:30.596Z,90.57
2018-10-05T03:33:37.647Z,90.47
2018-10-05T03:34:30.610Z,90.26
2018-10-05T03:35:30.562Z,90.88
2018-10-05T03:36:30.585Z,90.26
2018-10-05T03:37:30.539Z,90.26
2018-10-05T03:38:30.527Z,90.26
2018-10-05T03:39:30.552Z,90.57
2018-10-05T03:40:30.505Z,90.73
2018-10-05T03:41:30.492Z,90.83
2018-10-05T03:42:30.527Z,90.98
2018-10-05T03:43:30.477Z,90.26
2018-10-05T03:44:30.464Z,90.57
2018-10-05T03:45:30.452Z,90.53
2018-10-05T03:46:30.443Z,90.06
2018-10-05T03:47:30.461Z,90.06
2018-10-05T03:48:30.414Z,90.06
2018-10-05T03:49:30.438Z,90.06
2018-10-05T03:50:30.465Z,89.75
2018-10-05T03:51:30.384Z,90.78
2018-10-05T03:52:30.376Z,90.57
2018-10-05T03:53:30.374Z,90.67
2018-10-05T03:54:30.385Z,90.06
2018-10-05T03:55:30.338Z,90.16
2018-10-05T03:56:30.334Z,90.47
2018-10-05T03:57:30.323Z,90.47
2018-10-05T03:58:30.315Z,90.26
2018-10-05T03:59:30.331Z,90.47
2018-10-05T04:00:30.317Z,89.95
2018-10-05T04:01:30.327Z,90.16
2018-10-05T04:02:30.266Z,90.26
2018-10-05T04:03:30.254Z,90.06
2018-10-05T04:04:30.272Z,89.85
2018-10-05T04:05:30.234Z,89.75
2018-10-05T04:06:30.245Z,89.64
2018-10-05T04:07:30.250Z,89.64
2018-10-05T04:08:30.217Z,89.75
2018-10-05T04:09:30.230Z,89.64
2018-10-05T04:10:30.177Z,89.54
2018-10-05T04:11:30.201Z,89.48
2018-10-05T04:12:30.161Z,90.00
2018-10-05T04:13:30.147Z,90.06
2018-10-05T04:14:30.130Z,90.06
2018-10-05T04:15:30.154Z,89.85
2018-10-05T04:16:30.112Z,89.69
2018-10-05T04:17:30.111Z,90.00
2018-10-05T04:18:30.091Z,89.79
2018-10-05T04:19:30.077Z,90.51
2018-10-05T04:20:30.132Z,90.51
2018-10-05T04:21:30.057Z,90.20
2018-10-05T04:22:30.048Z,90.30
2018-10-05T04:23:30.042Z,90.20
2018-10-05T04:24:30.031Z,90.30
2018-10-05T04:25:30.064Z,90.30
2018-10-05T04:26:30.001Z,90.20
2018-10-05T04:27:30.002Z,90.09
2018-10-05T04:28:29.980Z,90.16
2018-10-05T04:29:29.969Z,90.41
2018-10-05T04:30:29.996Z,90.51
2018-10-05T04:31:29.975Z,90.30
2018-10-05T04:32:29.936Z,90.61
2018-10-05T04:33:29.923Z,90.51
2018-10-05T04:34:29.941Z,90.41
2018-10-05T04:35:29.939Z,90.61
2018-10-05T04:36:29.996Z,90.34
2018-10-05T04:37:29.917Z,90.75
2018-10-05T04:38:29.872Z,90.75
2018-10-05T04:39:29.960Z,90.75
2018-10-05T04:40:29.949Z,90.66
2018-10-05T04:41:29.934Z,91.06
2018-10-05T04:42:29.878Z,90.66
2018-10-05T04:43:29.817Z,91.06
2018-10-05T04:44:29.809Z,90.45
2018-10-05T04:45:29.795Z,91.38
2018-10-05T04:46:29.778Z,90.66
2018-10-05T04:47:29.797Z,90.66
2018-10-05T04:48:29.792Z,90.96
2018-10-05T04:49:29.787Z,91.38
2018-10-05T04:50:29.736Z,91.17
2018-10-05T04:51:29.732Z,91.31
2018-10-05T04:52:29.719Z,91.72
2018-10-05T04:53:29.742Z,91.27
2018-10-05T04:54:29.694Z,91.47
2018-10-05T04:55:29.687Z,91.31
2018-10-05T04:56:29.720Z,91.42
2018-10-05T04:57:29.661Z,91.17
2018-10-05T04:58:29.648Z,91.17
2018-10-05T04:59:29.677Z,90.59
2018-10-05T05:00:29.625Z,91.17
2018-10-05T05:01:29.618Z,91.47
2018-10-05T05:02:29.608Z,91.42
2018-10-05T05:03:29.633Z,91.42
2018-10-05T05:04:29.610Z,91.42
2018-10-05T05:05:29.616Z,91.17
2018-10-05T05:06:29.558Z,91.06
2018-10-05T05:07:29.593Z,92.03
2018-10-05T05:08:29.545Z,91.72
2018-10-05T05:09:29.523Z,92.55
2018-10-05T05:10:29.513Z,92.03
2018-10-05T05:11:29.506Z,92.61
2018-10-05T05:12:29.525Z,92.14
2018-10-05T05:13:29.485Z,92.44
2018-10-05T05:14:29.474Z,91.58
2018-10-05T05:15:29.465Z,91.52
2018-10-05T05:16:29.455Z,91.47
2018-10-05T05:17:29.485Z,91.83
2018-10-05T05:18:29.425Z,91.62
2018-10-05T05:19:29.436Z,91.11
2018-10-05T05:20:29.410Z,91.31
2018-10-05T05:21:29.394Z,91.31
2018-10-05T05:22:29.417Z,91.72
2018-10-05T05:23:29.369Z,92.03
2018-10-05T05:24:29.360Z,91.72
2018-10-05T05:25:29.360Z,91.42
2018-10-05T05:26:29.377Z,91.72
2018-10-05T05:27:29.333Z,91.62
2018-10-05T05:28:29.355Z,91.21
2018-10-05T05:29:29.361Z,91.42
2018-10-05T05:30:29.310Z,91.52
2018-10-05T05:31:29.290Z,91.62
2018-10-05T05:32:29.269Z,91.72
2018-10-05T05:33:29.324Z,91.78
2018-10-05T05:34:29.326Z,91.31
2018-10-05T05:35:29.243Z,91.42
2018-10-05T05:36:29.246Z,91.11
2018-10-05T05:37:29.257Z,91.31
2018-10-05T05:38:29.238Z,90.59
2018-10-05T05:39:29.233Z,90.49
2018-10-05T05:40:29.186Z,90.66
2018-10-05T05:41:29.207Z,90.39
2018-10-05T05:42:29.154Z,90.69
2018-10-05T05:43:29.149Z,91.11
2018-10-05T05:44:29.185Z,90.55
2018-10-05T05:45:29.161Z,90.59
2018-10-05T05:46:29.119Z,91.21
2018-10-05T05:47:29.101Z,90.69
2018-10-05T05:48:29.100Z,90.80
2018-10-05T05:49:29.117Z,91.42
2018-10-05T05:50:29.070Z,91.31
2018-10-05T05:51:29.059Z,91.62
2018-10-05T05:52:29.076Z,91.31
2018-10-05T05:53:29.047Z,91.11
2018-10-05T05:54:29.102Z,91.58
2018-10-05T05:55:29.044Z,90.86
2018-10-05T05:56:29.009Z,90.45
2018-10-05T05:57:29.047Z,90.55
2018-10-05T05:58:28.993Z,90.86
2018-10-05T05:59:28.973Z,90.49
2018-10-05T06:00:28.958Z,90.45
2018-10-05T06:01:28.984Z,90.28
2018-10-05T06:02:28.976Z,90.49
2018-10-05T06:03:28.925Z,91.11
2018-10-05T06:04:28.919Z,90.90
2018-10-05T06:05:28.947Z,90.55
2018-10-05T06:06:28.892Z,90.49
2018-10-05T06:07:28.890Z,91.00
2018-10-05T06:08:28.870Z,91.38
2018-10-05T06:09:28.862Z,90.90
2018-10-05T06:10:28.869Z,91.42
2018-10-05T06:11:28.839Z,90.90
2018-10-05T06:12:28.858Z,91.06
2018-10-05T06:13:28.813Z,90.59
2018-10-05T06:14:28.805Z,91.21
2018-10-05T06:15:28.802Z,91.21
2018-10-05T06:16:28.899Z,91.31
2018-10-05T06:17:28.778Z,90.34
2018-10-05T06:18:28.759Z,90.66
2018-10-05T06:19:28.787Z,91.11
2018-10-05T06:20:28.737Z,91.42
2018-10-05T06:21:28.810Z,91.06
2018-10-05T06:22:28.877Z,91.38
2018-10-05T06:23:28.714Z,91.06
2018-10-05T06:24:28.691Z,91.06
2018-10-05T06:25:28.690Z,90.75
2018-10-05T06:26:28.670Z,91.27
2018-10-05T06:27:28.729Z,90.45
2018-10-05T06:28:28.647Z,90.96
2018-10-05T06:29:28.646Z,91.27
2018-10-05T06:30:28.669Z,91.27
2018-10-05T06:31:28.617Z,91.47
2018-10-05T06:32:28.643Z,91.17
2018-10-05T06:33:28.595Z,90.66
2018-10-05T06:34:28.581Z,91.47
2018-10-05T06:35:28.572Z,90.66
2018-10-05T06:36:28.561Z,90.86
2018-10-05T06:37:28.569Z,90.30
2018-10-05T06:38:28.534Z,90.51
2018-10-05T06:39:28.526Z,91.74
2018-10-05T06:40:28.545Z,90.66
2018-10-05T06:41:28.567Z,91.33
2018-10-05T06:42:28.574Z,91.02
2018-10-05T06:43:28.512Z,91.44
2018-10-05T06:44:28.472Z,91.02
2018-10-05T06:45:28.461Z,91.44
2018-10-05T06:46:28.452Z,91.53
2018-10-05T06:47:28.445Z,90.98
2018-10-05T06:48:28.459Z,90.57
2018-10-05T06:49:28.451Z,90.57
2018-10-05T06:50:28.442Z,90.67
2018-10-05T06:51:28.399Z,91.49
2018-10-05T06:52:28.384Z,90.47
2018-10-05T06:53:28.375Z,90.42
2018-10-05T06:54:28.364Z,91.45
2018-10-05T06:55:28.380Z,90.32
2018-10-05T06:56:28.341Z,91.00
2018-10-05T06:57:28.357Z,91.45
2018-10-05T06:58:28.343Z,90.73
2018-10-05T06:59:28.305Z,91.14
2018-10-05T07:00:28.303Z,91.00
2018-10-05T07:01:28.373Z,91.41
2018-10-05T07:02:28.279Z,91.10
2018-10-05T07:03:28.306Z,91.31
2018-10-05T07:04:28.263Z,91.10
2018-10-05T07:05:28.309Z,90.80
2018-10-05T07:06:28.231Z,90.55
2018-10-05T07:07:28.227Z,90.34
2018-10-05T07:08:28.235Z,91.16
2018-10-05T07:09:28.231Z,91.27
2018-10-05T07:10:28.196Z,90.91
2018-10-05T07:11:28.286Z,91.12
2018-10-05T07:12:28.159Z,91.22
2018-10-05T07:13:28.176Z,91.42
2018-10-05T07:14:28.140Z,91.18
2018-10-05T07:15:28.126Z,91.28
2018-10-05T07:16:28.119Z,91.03
2018-10-05T07:17:28.167Z,90.26
2018-10-05T07:18:28.098Z,90.01
2018-10-05T07:19:28.086Z,90.69
2018-10-05T07:20:28.078Z,89.97
2018-10-05T07:21:28.149Z,89.87
2018-10-05T07:22:28.115Z,90.23
2018-10-05T07:23:28.045Z,89.00
2018-10-05T07:24:28.050Z,88.49
2018-10-05T07:25:28.019Z,88.08
2018-10-05T07:26:28.041Z,87.63
2018-10-05T07:27:28.001Z,87.59
2018-10-05T07:28:28.093Z,86.81
2018-10-05T07:29:27.981Z,86.05
2018-10-05T07:30:27.994Z,85.71
2018-10-05T07:31:27.992Z,85.50
2018-10-05T07:32:27.969Z,84.79
2018-10-05T07:33:27.928Z,84.38
2018-10-05T07:34:27.942Z,84.03
2018-10-05T07:35:27.920Z,84.14
2018-10-05T07:36:27.904Z,83.59
2018-10-05T07:37:28.585Z,82.67
2018-10-05T07:38:27.908Z,82.77
2018-10-05T07:39:27.862Z,81.91
2018-10-05T07:40:27.852Z,81.30
2018-10-05T07:41:27.872Z,80.58
2018-10-05T07:42:27.834Z,81.16
2018-10-05T07:43:27.820Z,80.75
2018-10-05T07:44:27.807Z,80.14
2018-10-05T07:45:27.820Z,80.20
2018-10-05T07:46:27.792Z,79.08
2018-10-05T07:47:27.773Z,78.88
2018-10-05T07:48:27.794Z,78.84
2018-10-05T07:49:27.753Z,78.74
2018-10-05T07:50:27.741Z,78.74
2018-10-05T07:51:27.728Z,76.87
2018-10-05T07:52:27.715Z,76.76
2018-10-05T07:53:27.740Z,76.76
2018-10-05T07:54:27.694Z,76.22
2018-10-05T07:55:27.690Z,75.92
2018-10-05T07:56:27.675Z,75.67
2018-10-05T07:57:27.770Z,75.67
2018-10-05T07:58:28.482Z,75.06
2018-10-05T07:59:27.683Z,75.10
2018-10-05T08:00:27.629Z,74.65
2018-10-05T08:01:27.633Z,74.15
2018-10-05T08:02:27.606Z,74.65
2018-10-05T08:03:27.595Z,73.74
2018-10-05T08:04:27.613Z,74.01
2018-10-05T08:05:27.576Z,74.11
2018-10-05T08:06:27.571Z,72.58
2018-10-05T08:07:27.570Z,72.45
2018-10-05T08:08:27.567Z,72.14
2018-10-05T08:09:27.608Z,71.84
2018-10-05T08:10:27.519Z,72.14
2018-10-05T08:11:27.509Z,72.34
2018-10-05T08:12:27.501Z,71.91
2018-10-05T08:13:27.527Z,71.09
2018-10-05T08:14:27.475Z,70.99
2018-10-05T08:15:27.465Z,70.99
2018-10-05T08:16:27.452Z,71.06
2018-10-05T08:17:27.498Z,70.99
2018-10-05T08:18:27.468Z,71.06
2018-10-05T08:19:27.459Z,70.65
2018-10-05T08:20:27.407Z,70.86
2018-10-05T08:21:27.476Z,70.75
2018-10-05T08:22:27.390Z,70.75
2018-10-05T08:23:27.374Z,70.82
2018-10-05T08:24:27.393Z,71.03
2018-10-05T08:25:27.357Z,70.92
2018-10-05T08:26:27.352Z,70.11
2018-10-05T08:27:27.338Z,70.01
2018-10-05T08:28:27.352Z,70.21
2018-10-05T08:29:27.307Z,70.11
2018-10-05T08:30:27.332Z,69.70
2018-10-05T08:31:27.297Z,69.40
2018-10-05T08:32:27.274Z,69.26
2018-10-05T08:33:27.301Z,68.45
2018-10-05T08:34:27.329Z,68.66
2018-10-05T08:35:27.242Z,68.45
2018-10-05T08:36:27.232Z,68.22
2018-10-05T08:37:27.243Z,67.61
2018-10-05T08:38:27.222Z,67.71
2018-10-05T08:39:27.201Z,68.01
2018-10-05T08:40:27.188Z,67.41
2018-10-05T08:41:27.271Z,67.30
2018-10-05T08:42:27.174Z,68.12
2018-10-05T08:43:27.154Z,67.50
2018-10-05T08:44:27.147Z,67.10
2018-10-05T08:45:27.140Z,67.30
2018-10-05T08:46:27.157Z,67.10
2018-10-05T08:47:27.114Z,66.49
2018-10-05T08:48:27.127Z,66.49
2018-10-05T08:49:27.085Z,66.80
2018-10-05T08:50:27.112Z,66.56
2018-10-05T08:51:27.095Z,66.77
2018-10-05T08:52:27.060Z,66.66
2018-10-05T08:53:27.052Z,66.77
2018-10-05T08:54:27.063Z,67.07
2018-10-05T08:55:27.024Z,65.82
2018-10-05T08:56:27.034Z,65.82
2018-10-05T08:57:27.008Z,65.82
2018-10-05T08:58:26.991Z,65.92
2018-10-05T08:59:27.010Z,65.82
2018-10-05T09:00:27.115Z,65.72
2018-10-05T09:01:26.962Z,65.39
2018-10-05T09:02:26.946Z,65.52
2018-10-05T09:03:26.941Z,65.48
2018-10-05T09:04:26.931Z,65.28
2018-10-05T09:05:26.946Z,64.78
2018-10-05T09:06:26.907Z,63.86
2018-10-05T09:07:26.897Z,64.37
2018-10-05T09:08:26.881Z,63.86
2018-10-05T09:09:26.873Z,64.04
2018-10-05T09:10:26.893Z,63.93
2018-10-05T09:11:26.990Z,63.53
2018-10-05T09:12:26.836Z,63.32
2018-10-05T09:13:26.870Z,63.73
2018-10-05T09:14:26.820Z,63.83
2018-10-05T09:15:26.807Z,63.83
2018-10-05T09:16:26.816Z,63.83
2018-10-05T09:17:26.783Z,62.99
2018-10-05T09:18:26.804Z,62.89
2018-10-05T09:19:26.798Z,62.89
2018-10-05T09:20:26.746Z,62.69
2018-10-05T09:21:26.743Z,62.89
2018-10-05T09:22:26.724Z,62.79
2018-10-05T09:23:26.720Z,62.79
2018-10-05T09:24:26.762Z,62.89
2018-10-05T09:25:26.695Z,62.66
2018-10-05T09:26:26.701Z,62.66
2018-10-05T09:27:26.671Z,62.86
2018-10-05T09:28:26.663Z,62.86
2018-10-05T09:29:26.709Z,62.76
2018-10-05T09:30:26.710Z,62.66
2018-10-05T09:31:26.624Z,62.53
2018-10-05T09:32:26.615Z,61.62
2018-10-05T09:33:26.648Z,61.62
2018-10-05T09:34:26.598Z,61.01
2018-10-05T09:35:26.587Z,61.08
2018-10-05T09:36:26.576Z,61.08
2018-10-05T09:37:27.547Z,61.49
2018-10-05T09:38:26.589Z,60.68
2018-10-05T09:39:26.568Z,61.08
2018-10-05T09:40:26.540Z,60.58
2018-10-05T09:41:26.526Z,60.48
2018-10-05T09:42:26.574Z,60.68
2018-10-05T09:43:26.524Z,60.58
2018-10-05T09:44:26.488Z,60.88
2018-10-05T09:45:26.498Z,60.78
2018-10-05T09:46:26.462Z,60.45
2018-10-05T09:47:26.459Z,60.35
2018-10-05T09:48:26.444Z,60.35
2018-10-05T09:49:26.470Z,59.23
2018-10-05T09:50:26.428Z,58.93
2018-10-05T09:51:26.410Z,58.80
2018-10-05T09:52:26.636Z,58.91
2018-10-05T09:53:26.384Z,59.31
2018-10-05T09:54:26.422Z,58.91
2018-10-05T09:55:26.395Z,59.21
2018-10-05T09:56:26.388Z,58.91
2018-10-05T09:57:26.344Z,59.11
2018-10-05T09:58:26.381Z,58.67
2018-10-05T09:59:26.322Z,59.28
2018-10-05T10:00:26.337Z,59.41
2018-10-05T10:01:26.303Z,59.28
2018-10-05T10:02:26.332Z,58.78
2018-10-05T10:03:26.334Z,59.18
2018-10-05T10:04:26.310Z,59.18
2018-10-05T10:05:26.296Z,59.18
2018-10-05T10:06:26.264Z,58.78
2018-10-05T10:07:26.262Z,58.78
2018-10-05T10:08:26.283Z,59.25
2018-10-05T10:09:26.341Z,58.98
2018-10-05T10:10:26.261Z,58.54
2018-10-05T10:11:26.210Z,57.34
2018-10-05T10:12:26.178Z,57.54
2018-10-05T10:13:26.161Z,57.74
2018-10-05T10:14:26.186Z,57.51
2018-10-05T10:15:26.141Z,57.01
2018-10-05T10:16:26.178Z,57.21
2018-10-05T10:17:26.211Z,57.41
2018-10-05T10:18:26.102Z,57.01
2018-10-05T10:19:26.134Z,57.51
2018-10-05T10:20:26.091Z,57.71
2018-10-05T10:21:26.090Z,57.51
2018-10-05T10:22:26.094Z,57.48
2018-10-05T10:23:26.056Z,56.98
2018-10-05T10:24:26.048Z,57.38
2018-10-05T10:25:26.026Z,56.77
2018-10-05T10:26:26.077Z,56.98
2018-10-05T10:27:26.043Z,56.88
2018-10-05T10:28:26.074Z,56.57
2018-10-05T10:29:26.051Z,56.57
2018-10-05T10:30:26.001Z,56.24
2018-10-05T10:31:25.961Z,55.04
2018-10-05T10:32:25.952Z,55.14
2018-10-05T10:33:26.013Z,54.53
2018-10-05T10:34:25.992Z,55.24
2018-10-05T10:35:25.921Z,55.44
2018-10-05T10:36:25.929Z,55.34
2018-10-05T10:37:25.899Z,54.94
2018-10-05T10:38:25.917Z,55.04
2018-10-05T10:39:25.875Z,54.94
2018-10-05T10:40:25.865Z,55.14
2018-10-05T10:41:25.860Z,55.41
2018-10-05T10:42:25.895Z,55.21
2018-10-05T10:43:25.830Z,55.01
2018-10-05T10:44:25.825Z,55.04
2018-10-05T10:45:25.808Z,54.41
2018-10-05T10:46:25.853Z,54.41
2018-10-05T10:47:25.795Z,54.61
2018-10-05T10:48:25.808Z,54.30
2018-10-05T10:49:25.851Z,53.70
2018-10-05T10:50:25.762Z,54.08
2018-10-05T10:51:25.744Z,53.90
2018-10-05T10:52:25.762Z,53.80
2018-10-05T10:53:25.733Z,53.98
2018-10-05T10:54:25.751Z,54.28
2018-10-05T10:55:25.705Z,53.98
2018-10-05T10:56:25.768Z,53.88
2018-10-05T10:57:25.676Z,53.98
2018-10-05T10:58:25.680Z,53.38
2018-10-05T10:59:25.691Z,53.47
2018-10-05T11:00:25.653Z,53.27
2018-10-05T11:01:25.680Z,53.67
2018-10-05T11:02:25.629Z,53.65
2018-10-05T11:03:25.633Z,54.15
2018-10-05T11:04:25.717Z,54.25
2018-10-05T11:05:25.604Z,54.55
2018-10-05T11:06:25.590Z,54.35
2018-10-05T11:07:25.615Z,54.66
2018-10-05T11:08:25.558Z,53.95
2018-10-05T11:09:25.574Z,53.95
2018-10-05T11:10:25.546Z,53.05
2018-10-05T11:11:25.564Z,53.95
2018-10-05T11:12:25.547Z,53.72
2018-10-05T11:13:25.578Z,53.52
2018-10-05T11:14:25.495Z,52.84
2018-10-05T11:15:25.485Z,53.52
2018-10-05T11:16:25.534Z,53.22
2018-10-05T11:17:25.500Z,53.52
2018-10-05T11:18:25.444Z,53.63
2018-10-05T11:19:25.468Z,52.22
2018-10-05T11:20:25.432Z,53.22
2018-10-05T11:21:25.451Z,53.20
2018-10-05T11:22:25.434Z,52.89
2018-10-05T11:23:25.444Z,52.39
2018-10-05T11:24:25.429Z,52.69
2018-10-05T11:25:25.373Z,52.59
2018-10-05T11:26:25.369Z,52.19
2018-10-05T11:27:25.350Z,52.80
2018-10-05T11:28:25.346Z,51.79
2018-10-05T11:29:25.418Z,52.19
2018-10-05T11:30:25.359Z,52.39
2018-10-05T11:31:25.303Z,52.26
2018-10-05T11:32:25.302Z,52.39
2018-10-05T11:33:25.279Z,52.29
2018-10-05T11:34:25.293Z,52.69
2018-10-05T11:35:25.263Z,52.87
2018-10-05T11:36:25.283Z,52.67
2018-10-05T11:37:25.251Z,52.47
2018-10-05T11:38:25.224Z,51.36
2018-10-05T11:39:25.213Z,51.46
2018-10-05T11:40:25.200Z,51.16
2018-10-05T11:41:25.219Z,51.36
2018-10-05T11:42:25.180Z,50.76
2018-10-05T11:43:25.191Z,51.56
2018-10-05T11:44:25.194Z,51.36
2018-10-05T11:45:25.145Z,51.16
2018-10-05T11:46:25.158Z,51.66
2018-10-05T11:47:25.140Z,51.04
2018-10-05T11:48:25.125Z,51.16
2018-10-05T11:49:25.149Z,51.06
2018-10-05T11:50:25.128Z,51.34
2018-10-05T11:51:25.077Z,51.16
2018-10-05T11:52:25.125Z,51.34
2018-10-05T11:53:25.078Z,51.44
2018-10-05T11:54:25.056Z,51.44
2018-10-05T11:55:25.069Z,51.34
2018-10-05T11:56:25.050Z,51.14
2018-10-05T11:57:25.042Z,51.24
2018-10-05T11:58:25.050Z,51.42
2018-10-05T11:59:25.003Z,50.41
2018-10-05T12:00:25.015Z,49.91
2018-10-05T12:01:24.971Z,49.48
2018-10-05T12:02:24.968Z,49.68
2018-10-05T12:03:24.950Z,49.08
2018-10-05T12:04:24.951Z,49.08
2018-10-05T12:05:24.969Z,49.16
2018-10-05T12:06:24.918Z,49.16
2018-10-05T12:07:24.943Z,49.05
2018-10-05T12:08:24.894Z,49.16
2018-10-05T12:09:24.909Z,48.75
2018-10-05T12:10:24.875Z,48.16
2018-10-05T12:11:24.874Z,48.86
2018-10-05T12:12:24.911Z,48.86
2018-10-05T12:13:24.853Z,48.13
2018-10-05T12:14:24.858Z,47.41
2018-10-05T12:15:24.825Z,47.38
2018-10-05T12:16:24.811Z,46.16
2018-10-05T12:17:24.804Z,46.16
2018-10-05T12:18:24.810Z,45.74
2018-10-05T12:19:24.784Z,45.62
2018-10-05T12:20:24.791Z,45.42
2018-10-05T12:21:24.793Z,45.00
2018-10-05T12:22:24.741Z,44.47
2018-10-05T12:23:24.727Z,43.85
2018-10-05T12:24:24.759Z,44.45
2018-10-05T12:25:24.710Z,44.43
2018-10-05T12:26:24.704Z,43.83
2018-10-05T12:27:24.693Z,44.11
2018-10-05T12:28:24.715Z,42.61
2018-10-05T12:29:24.704Z,42.89
2018-10-05T12:30:24.654Z,42.18
2018-10-05T12:31:24.645Z,41.47
2018-10-05T12:32:24.667Z,40.86
2018-10-05T12:33:24.743Z,40.95
2018-10-05T12:34:24.647Z,40.44
2018-10-05T12:35:24.606Z,40.24
2018-10-05T12:36:24.600Z,40.04
2018-10-05T12:37:24.576Z,39.84
2018-10-05T12:38:24.602Z,40.04
2018-10-05T12:39:24.564Z,39.94
2018-10-05T12:40:24.543Z,39.74
2018-10-05T12:41:24.534Z,40.04
2018-10-05T12:42:24.555Z,40.16
2018-10-05T12:43:24.511Z,40.76
2018-10-05T12:44:24.504Z,40.68
2018-10-05T12:45:24.523Z,40.80
2018-10-05T12:46:24.482Z,40.62
2018-10-05T12:47:24.468Z,41.22
2018-10-05T12:48:24.463Z,42.41
2018-10-05T12:49:24.546Z,42.63
2018-10-05T12:50:24.470Z,42.83
2018-10-05T12:51:24.424Z,42.24
2018-10-05T12:52:24.419Z,42.73